sensor_id;sensor_type;location;lat;lon;timestamp;P1;durP1;ratioP1;P2;durP2;ratioP2
67768;SDS011;54569;52.018;5.584;2023-02-28T00:02:18;6.70;;;2.90;;
67768;SDS011;54569;52.018;5.584;2023-02-28T00:04:43;5.10;;;3.00;;
67768;SDS011;54569;52.018;5.584;2023-02-28T00:07:09;4.65;;;2.80;;
67768;SDS011;54569;52.018;5.584;2023-02-28T00:09:35;4.55;;;3.03;;
67768;SDS011;54569;52.018;5.584;2023-02-28T00:12:00;2.88;;;2.42;;
67768;SDS011;54569;52.018;5.584;2023-02-28T00:14:38;4.10;;;3.10;;
67768;SDS011;54569;52.018;5.584;2023-02-28T00:17:04;4.45;;;3.20;;
67768;SDS011;54569;52.018;5.584;2023-02-28T00:19:29;4.35;;;3.08;;
67768;SDS011;54569;52.018;5.584;2023-02-28T00:21:55;5.45;;;2.97;;
67768;SDS011;54569;52.018;5.584;2023-02-28T00:24:20;4.93;;;3.13;;
67768;SDS011;54569;52.018;5.584;2023-02-28T00:26:46;3.38;;;3.05;;
67768;SDS011;54569;52.018;5.584;2023-02-28T00:29:12;3.47;;;3.03;;
67768;SDS011;54569;52.018;5.584;2023-02-28T00:31:39;3.53;;;2.92;;
67768;SDS011;54569;52.018;5.584;2023-02-28T00:34:04;4.13;;;3.10;;
67768;SDS011;54569;52.018;5.584;2023-02-28T00:36:30;5.63;;;3.35;;
67768;SDS011;54569;52.018;5.584;2023-02-28T00:38:56;5.75;;;3.03;;
67768;SDS011;54569;52.018;5.584;2023-02-28T00:41:21;5.00;;;3.17;;
67768;SDS011;54569;52.018;5.584;2023-02-28T00:43:47;5.43;;;2.95;;
67768;SDS011;54569;52.018;5.584;2023-02-28T00:46:13;4.88;;;2.97;;
67768;SDS011;54569;52.018;5.584;2023-02-28T00:48:38;4.78;;;3.03;;
67768;SDS011;54569;52.018;5.584;2023-02-28T00:51:04;4.95;;;3.55;;
67768;SDS011;54569;52.018;5.584;2023-02-28T00:53:30;6.57;;;3.70;;
67768;SDS011;54569;52.018;5.584;2023-02-28T00:55:57;7.20;;;3.83;;
67768;SDS011;54569;52.018;5.584;2023-02-28T00:58:24;6.40;;;4.00;;
67768;SDS011;54569;52.018;5.584;2023-02-28T01:00:53;7.03;;;4.45;;
67768;SDS011;54569;52.018;5.584;2023-02-28T01:03:19;6.47;;;4.38;;
67768;SDS011;54569;52.018;5.584;2023-02-28T01:05:47;6.75;;;3.72;;
67768;SDS011;54569;52.018;5.584;2023-02-28T01:08:13;8.77;;;3.58;;
67768;SDS011;54569;52.018;5.584;2023-02-28T01:10:39;4.00;;;3.40;;
67768;SDS011;54569;52.018;5.584;2023-02-28T01:13:06;4.55;;;2.88;;
67768;SDS011;54569;52.018;5.584;2023-02-28T01:15:33;6.00;;;2.95;;
67768;SDS011;54569;52.018;5.584;2023-02-28T01:17:58;6.22;;;3.40;;
67768;SDS011;54569;52.018;5.584;2023-02-28T01:20:24;5.22;;;3.22;;
67768;SDS011;54569;52.018;5.584;2023-02-28T01:22:50;4.57;;;3.38;;
67768;SDS011;54569;52.018;5.584;2023-02-28T01:25:15;6.22;;;3.20;;
67768;SDS011;54569;52.018;5.584;2023-02-28T01:27:41;4.47;;;3.40;;
67768;SDS011;54569;52.018;5.584;2023-02-28T01:30:07;4.90;;;3.08;;
67768;SDS011;54569;52.018;5.584;2023-02-28T01:32:34;4.35;;;2.92;;
67768;SDS011;54569;52.018;5.584;2023-02-28T01:35:00;5.85;;;3.35;;
67768;SDS011;54569;52.018;5.584;2023-02-28T01:37:26;4.95;;;2.90;;
67768;SDS011;54569;52.018;5.584;2023-02-28T01:39:52;5.97;;;3.72;;
67768;SDS011;54569;52.018;5.584;2023-02-28T01:42:19;4.93;;;3.17;;
67768;SDS011;54569;52.018;5.584;2023-02-28T01:47:20;4.18;;;3.30;;
67768;SDS011;54569;52.018;5.584;2023-02-28T01:49:46;4.53;;;2.95;;
67768;SDS011;54569;52.018;5.584;2023-02-28T01:52:12;3.90;;;3.30;;
67768;SDS011;54569;52.018;5.584;2023-02-28T01:54:43;6.78;;;3.30;;
67768;SDS011;54569;52.018;5.584;2023-02-28T01:57:14;3.30;;;3.00;;
67768;SDS011;54569;52.018;5.584;2023-02-28T01:59:48;5.65;;;3.20;;
67768;SDS011;54569;52.018;5.584;2023-02-28T02:02:21;4.15;;;2.80;;
67768;SDS011;54569;52.018;5.584;2023-02-28T02:04:53;2.92;;;2.63;;
67768;SDS011;54569;52.018;5.584;2023-02-28T02:07:34;4.10;;;2.88;;
67768;SDS011;54569;52.018;5.584;2023-02-28T02:10:09;5.15;;;3.20;;
67768;SDS011;54569;52.018;5.584;2023-02-28T02:15:31;3.45;;;3.08;;
67768;SDS011;54569;52.018;5.584;2023-02-28T02:18:06;5.57;;;3.03;;
67768;SDS011;54569;52.018;5.584;2023-02-28T02:23:14;6.75;;;3.30;;
67768;SDS011;54569;52.018;5.584;2023-02-28T02:26:16;7.18;;;3.10;;
67768;SDS011;54569;52.018;5.584;2023-02-28T02:36:58;4.90;;;2.83;;
67768;SDS011;54569;52.018;5.584;2023-02-28T02:41:55;6.93;;;3.13;;
67768;SDS011;54569;52.018;5.584;2023-02-28T02:47:37;4.53;;;2.97;;
67768;SDS011;54569;52.018;5.584;2023-02-28T02:50:05;4.57;;;2.85;;
67768;SDS011;54569;52.018;5.584;2023-02-28T02:52:46;3.33;;;2.83;;
67768;SDS011;54569;52.018;5.584;2023-02-28T02:55:16;3.53;;;2.90;;
67768;SDS011;54569;52.018;5.584;2023-02-28T02:57:56;5.60;;;3.35;;
67768;SDS011;54569;52.018;5.584;2023-02-28T03:00:29;3.67;;;2.78;;
67768;SDS011;54569;52.018;5.584;2023-02-28T03:02:59;5.28;;;3.42;;
67768;SDS011;54569;52.018;5.584;2023-02-28T03:05:31;6.10;;;2.97;;
67768;SDS011;54569;52.018;5.584;2023-02-28T03:08:13;4.22;;;2.90;;
67768;SDS011;54569;52.018;5.584;2023-02-28T03:10:43;4.47;;;3.15;;
67768;SDS011;54569;52.018;5.584;2023-02-28T03:16:01;3.63;;;3.17;;
67768;SDS011;54569;52.018;5.584;2023-02-28T03:18:39;7.22;;;3.17;;
67768;SDS011;54569;52.018;5.584;2023-02-28T03:21:39;3.78;;;3.15;;
67768;SDS011;54569;52.018;5.584;2023-02-28T03:26:42;5.22;;;3.15;;
67768;SDS011;54569;52.018;5.584;2023-02-28T03:29:26;4.30;;;2.90;;
67768;SDS011;54569;52.018;5.584;2023-02-28T03:32:45;3.67;;;3.08;;
67768;SDS011;54569;52.018;5.584;2023-02-28T03:34:48;3.63;;;2.95;;
67768;SDS011;54569;52.018;5.584;2023-02-28T03:37:22;6.95;;;3.63;;
67768;SDS011;54569;52.018;5.584;2023-02-28T03:39:53;4.32;;;3.22;;
67768;SDS011;54569;52.018;5.584;2023-02-28T03:42:27;5.25;;;3.17;;
67768;SDS011;54569;52.018;5.584;2023-02-28T03:45:16;5.40;;;3.63;;
67768;SDS011;54569;52.018;5.584;2023-02-28T03:50:34;4.13;;;3.67;;
67768;SDS011;54569;52.018;5.584;2023-02-28T03:56:09;4.93;;;3.67;;
67768;SDS011;54569;52.018;5.584;2023-02-28T03:58:54;7.80;;;4.00;;
67768;SDS011;54569;52.018;5.584;2023-02-28T04:01:43;5.85;;;3.78;;
67768;SDS011;54569;52.018;5.584;2023-02-28T04:04:10;3.65;;;2.97;;
67768;SDS011;54569;52.018;5.584;2023-02-28T04:06:37;6.03;;;3.15;;
67768;SDS011;54569;52.018;5.584;2023-02-28T04:09:04;4.22;;;2.83;;
67768;SDS011;54569;52.018;5.584;2023-02-28T04:11:37;3.00;;;2.65;;
67768;SDS011;54569;52.018;5.584;2023-02-28T04:14:05;2.38;;;2.17;;
67768;SDS011;54569;52.018;5.584;2023-02-28T04:16:33;3.28;;;2.45;;
67768;SDS011;54569;52.018;5.584;2023-02-28T04:19:00;2.78;;;2.42;;
67768;SDS011;54569;52.018;5.584;2023-02-28T04:21:34;3.15;;;2.65;;
67768;SDS011;54569;52.018;5.584;2023-02-28T04:24:01;2.55;;;2.13;;
67768;SDS011;54569;52.018;5.584;2023-02-28T04:26:35;2.65;;;2.45;;
67768;SDS011;54569;52.018;5.584;2023-02-28T04:29:02;2.33;;;2.13;;
67768;SDS011;54569;52.018;5.584;2023-02-28T04:31:29;2.67;;;2.22;;
67768;SDS011;54569;52.018;5.584;2023-02-28T04:33:55;2.58;;;2.10;;
67768;SDS011;54569;52.018;5.584;2023-02-28T04:36:21;6.05;;;2.53;;
67768;SDS011;54569;52.018;5.584;2023-02-28T04:38:48;2.38;;;2.17;;
67768;SDS011;54569;52.018;5.584;2023-02-28T04:41:14;3.38;;;2.25;;
67768;SDS011;54569;52.018;5.584;2023-02-28T04:43:40;3.92;;;2.03;;
67768;SDS011;54569;52.018;5.584;2023-02-28T04:46:06;2.42;;;2.22;;
67768;SDS011;54569;52.018;5.584;2023-02-28T04:48:35;2.15;;;2.00;;
67768;SDS011;54569;52.018;5.584;2023-02-28T04:51:03;2.03;;;1.83;;
67768;SDS011;54569;52.018;5.584;2023-02-28T04:53:36;3.85;;;2.20;;
67768;SDS011;54569;52.018;5.584;2023-02-28T04:56:04;2.15;;;1.95;;
67768;SDS011;54569;52.018;5.584;2023-02-28T04:58:31;3.78;;;2.45;;
67768;SDS011;54569;52.018;5.584;2023-02-28T05:01:57;3.42;;;2.25;;
67768;SDS011;54569;52.018;5.584;2023-02-28T05:03:54;2.78;;;2.13;;
67768;SDS011;54569;52.018;5.584;2023-02-28T05:06:24;5.38;;;2.17;;
67768;SDS011;54569;52.018;5.584;2023-02-28T05:08:51;3.17;;;2.30;;
67768;SDS011;54569;52.018;5.584;2023-02-28T05:11:21;3.30;;;2.17;;
67768;SDS011;54569;52.018;5.584;2023-02-28T05:13:49;8.90;;;2.40;;
67768;SDS011;54569;52.018;5.584;2023-02-28T05:16:16;3.38;;;2.80;;
67768;SDS011;54569;52.018;5.584;2023-02-28T05:18:43;3.22;;;2.13;;
67768;SDS011;54569;52.018;5.584;2023-02-28T05:23:55;2.33;;;2.13;;
67768;SDS011;54569;52.018;5.584;2023-02-28T05:26:22;2.03;;;1.83;;
67768;SDS011;54569;52.018;5.584;2023-02-28T05:28:48;2.00;;;1.85;;
67768;SDS011;54569;52.018;5.584;2023-02-28T05:31:14;3.05;;;2.33;;
67768;SDS011;54569;52.018;5.584;2023-02-28T05:33:40;3.47;;;1.90;;
67768;SDS011;54569;52.018;5.584;2023-02-28T05:36:06;2.55;;;2.33;;
67768;SDS011;54569;52.018;5.584;2023-02-28T05:38:32;2.10;;;1.98;;
67768;SDS011;54569;52.018;5.584;2023-02-28T05:40:58;4.45;;;2.40;;
67768;SDS011;54569;52.018;5.584;2023-02-28T05:43:23;2.88;;;2.20;;
67768;SDS011;54569;52.018;5.584;2023-02-28T05:45:50;4.80;;;2.40;;
67768;SDS011;54569;52.018;5.584;2023-02-28T05:48:16;3.15;;;1.85;;
67768;SDS011;54569;52.018;5.584;2023-02-28T05:50:43;2.63;;;2.42;;
67768;SDS011;54569;52.018;5.584;2023-02-28T05:53:11;3.50;;;2.05;;
67768;SDS011;54569;52.018;5.584;2023-02-28T05:55:36;2.63;;;2.40;;
67768;SDS011;54569;52.018;5.584;2023-02-28T05:58:03;2.10;;;2.00;;
67768;SDS011;54569;52.018;5.584;2023-02-28T06:00:28;6.15;;;2.55;;
67768;SDS011;54569;52.018;5.584;2023-02-28T06:02:54;2.85;;;2.40;;
67768;SDS011;54569;52.018;5.584;2023-02-28T06:05:23;4.18;;;2.72;;
67768;SDS011;54569;52.018;5.584;2023-02-28T06:07:49;2.95;;;1.98;;
67768;SDS011;54569;52.018;5.584;2023-02-28T06:10:15;2.72;;;2.50;;
67768;SDS011;54569;52.018;5.584;2023-02-28T06:12:41;3.03;;;2.72;;
67768;SDS011;54569;52.018;5.584;2023-02-28T06:15:09;2.58;;;2.10;;
67768;SDS011;54569;52.018;5.584;2023-02-28T06:17:38;2.72;;;2.08;;
67768;SDS011;54569;52.018;5.584;2023-02-28T06:20:04;2.65;;;2.45;;
67768;SDS011;54569;52.018;5.584;2023-02-28T06:22:30;4.35;;;2.65;;
67768;SDS011;54569;52.018;5.584;2023-02-28T06:24:56;3.03;;;2.55;;
67768;SDS011;54569;52.018;5.584;2023-02-28T06:27:22;4.80;;;3.35;;
67768;SDS011;54569;52.018;5.584;2023-02-28T06:29:48;3.17;;;2.40;;
67768;SDS011;54569;52.018;5.584;2023-02-28T06:32:14;2.50;;;2.30;;
67768;SDS011;54569;52.018;5.584;2023-02-28T06:34:39;4.22;;;2.70;;
67768;SDS011;54569;52.018;5.584;2023-02-28T06:37:05;4.18;;;2.70;;
67768;SDS011;54569;52.018;5.584;2023-02-28T06:39:31;5.97;;;3.03;;
67768;SDS011;54569;52.018;5.584;2023-02-28T06:41:57;2.97;;;2.50;;
67768;SDS011;54569;52.018;5.584;2023-02-28T06:44:23;2.90;;;2.60;;
67768;SDS011;54569;52.018;5.584;2023-02-28T06:46:49;2.13;;;2.00;;
67768;SDS011;54569;52.018;5.584;2023-02-28T06:49:15;3.90;;;2.83;;
67768;SDS011;54569;52.018;5.584;2023-02-28T06:51:41;5.72;;;2.58;;
67768;SDS011;54569;52.018;5.584;2023-02-28T06:54:11;2.67;;;2.47;;
67768;SDS011;54569;52.018;5.584;2023-02-28T06:56:37;5.85;;;2.90;;
67768;SDS011;54569;52.018;5.584;2023-02-28T06:59:03;3.25;;;2.95;;
67768;SDS011;54569;52.018;5.584;2023-02-28T07:01:30;3.65;;;2.80;;
67768;SDS011;54569;52.018;5.584;2023-02-28T07:03:57;4.72;;;3.10;;
67768;SDS011;54569;52.018;5.584;2023-02-28T07:06:25;3.67;;;2.85;;
67768;SDS011;54569;52.018;5.584;2023-02-28T07:08:51;3.38;;;3.05;;
67768;SDS011;54569;52.018;5.584;2023-02-28T07:11:18;3.33;;;3.03;;
67768;SDS011;54569;52.018;5.584;2023-02-28T07:13:45;4.07;;;2.88;;
67768;SDS011;54569;52.018;5.584;2023-02-28T07:16:12;2.80;;;2.60;;
67768;SDS011;54569;52.018;5.584;2023-02-28T07:18:38;4.55;;;3.17;;
67768;SDS011;54569;52.018;5.584;2023-02-28T07:21:05;6.18;;;3.17;;
67768;SDS011;54569;52.018;5.584;2023-02-28T07:23:32;4.43;;;3.08;;
67768;SDS011;54569;52.018;5.584;2023-02-28T07:25:58;3.45;;;2.90;;
67768;SDS011;54569;52.018;5.584;2023-02-28T07:28:23;3.67;;;3.28;;
67768;SDS011;54569;52.018;5.584;2023-02-28T07:30:49;4.35;;;3.67;;
67768;SDS011;54569;52.018;5.584;2023-02-28T07:33:16;6.45;;;4.80;;
67768;SDS011;54569;52.018;5.584;2023-02-28T07:35:42;5.85;;;4.25;;
67768;SDS011;54569;52.018;5.584;2023-02-28T07:38:08;4.97;;;3.40;;
67768;SDS011;54569;52.018;5.584;2023-02-28T07:40:34;5.00;;;2.80;;
67768;SDS011;54569;52.018;5.584;2023-02-28T07:43:00;4.32;;;3.05;;
67768;SDS011;54569;52.018;5.584;2023-02-28T07:45:26;2.90;;;2.70;;
67768;SDS011;54569;52.018;5.584;2023-02-28T07:47:54;3.28;;;2.38;;
67768;SDS011;54569;52.018;5.584;2023-02-28T07:50:20;4.60;;;3.00;;
67768;SDS011;54569;52.018;5.584;2023-02-28T07:52:46;3.67;;;3.03;;
67768;SDS011;54569;52.018;5.584;2023-02-28T07:55:11;3.92;;;3.03;;
67768;SDS011;54569;52.018;5.584;2023-02-28T07:57:39;2.25;;;2.05;;
67768;SDS011;54569;52.018;5.584;2023-02-28T08:00:06;4.28;;;2.10;;
67768;SDS011;54569;52.018;5.584;2023-02-28T08:02:39;2.17;;;1.90;;
67768;SDS011;54569;52.018;5.584;2023-02-28T08:05:05;2.55;;;2.10;;
67768;SDS011;54569;52.018;5.584;2023-02-28T08:07:32;2.10;;;1.90;;
67768;SDS011;54569;52.018;5.584;2023-02-28T08:09:58;2.35;;;2.05;;
67768;SDS011;54569;52.018;5.584;2023-02-28T08:12:24;2.47;;;1.77;;
67768;SDS011;54569;52.018;5.584;2023-02-28T08:14:50;3.03;;;2.60;;
67768;SDS011;54569;52.018;5.584;2023-02-28T08:17:16;2.45;;;1.83;;
67768;SDS011;54569;52.018;5.584;2023-02-28T08:19:42;2.20;;;1.90;;
67768;SDS011;54569;52.018;5.584;2023-02-28T08:22:10;3.00;;;1.90;;
67768;SDS011;54569;52.018;5.584;2023-02-28T08:24:35;2.10;;;1.70;;
67768;SDS011;54569;52.018;5.584;2023-02-28T08:27:01;4.28;;;1.83;;
67768;SDS011;54569;52.018;5.584;2023-02-28T08:29:27;4.72;;;1.88;;
67768;SDS011;54569;52.018;5.584;2023-02-28T08:31:52;2.15;;;1.65;;
67768;SDS011;54569;52.018;5.584;2023-02-28T08:34:18;2.33;;;1.85;;
67768;SDS011;54569;52.018;5.584;2023-02-28T08:36:44;1.70;;;1.60;;
67768;SDS011;54569;52.018;5.584;2023-02-28T08:39:10;1.70;;;1.60;;
67768;SDS011;54569;52.018;5.584;2023-02-28T08:41:37;2.30;;;2.10;;
67768;SDS011;54569;52.018;5.584;2023-02-28T08:44:02;2.40;;;1.70;;
67768;SDS011;54569;52.018;5.584;2023-02-28T08:46:28;2.05;;;1.70;;
67768;SDS011;54569;52.018;5.584;2023-02-28T08:48:54;1.75;;;1.50;;
67768;SDS011;54569;52.018;5.584;2023-02-28T08:51:24;1.95;;;1.85;;
67768;SDS011;54569;52.018;5.584;2023-02-28T08:53:53;1.38;;;1.27;;
67768;SDS011;54569;52.018;5.584;2023-02-28T08:56:28;1.85;;;1.50;;
67768;SDS011;54569;52.018;5.584;2023-02-28T08:58:54;2.55;;;1.90;;
67768;SDS011;54569;52.018;5.584;2023-02-28T09:01:26;1.98;;;1.80;;
67768;SDS011;54569;52.018;5.584;2023-02-28T09:03:53;1.85;;;1.75;;
67768;SDS011;54569;52.018;5.584;2023-02-28T09:06:20;2.92;;;1.90;;
67768;SDS011;54569;52.018;5.584;2023-02-28T09:08:47;1.90;;;1.60;;
67768;SDS011;54569;52.018;5.584;2023-02-28T09:11:13;2.45;;;1.20;;
67768;SDS011;54569;52.018;5.584;2023-02-28T09:13:39;1.45;;;1.35;;
67768;SDS011;54569;52.018;5.584;2023-02-28T09:16:06;2.53;;;1.38;;
67768;SDS011;54569;52.018;5.584;2023-02-28T09:18:34;3.83;;;1.40;;
67768;SDS011;54569;52.018;5.584;2023-02-28T09:21:06;1.88;;;1.55;;
67768;SDS011;54569;52.018;5.584;2023-02-28T09:23:34;2.53;;;1.60;;
67768;SDS011;54569;52.018;5.584;2023-02-28T09:26:03;1.55;;;1.45;;
67768;SDS011;54569;52.018;5.584;2023-02-28T09:28:28;2.65;;;1.90;;
67768;SDS011;54569;52.018;5.584;2023-02-28T09:30:54;1.50;;;1.40;;
67768;SDS011;54569;52.018;5.584;2023-02-28T09:33:22;1.63;;;1.52;;
67768;SDS011;54569;52.018;5.584;2023-02-28T09:35:49;3.80;;;1.50;;
67768;SDS011;54569;52.018;5.584;2023-02-28T09:38:15;2.20;;;1.30;;
67768;SDS011;54569;52.018;5.584;2023-02-28T09:41:03;1.65;;;1.25;;
67768;SDS011;54569;52.018;5.584;2023-02-28T09:43:33;2.17;;;1.98;;
67768;SDS011;54569;52.018;5.584;2023-02-28T09:46:08;1.80;;;1.70;;
67768;SDS011;54569;52.018;5.584;2023-02-28T09:48:44;1.33;;;1.23;;
67768;SDS011;54569;52.018;5.584;2023-02-28T09:51:15;1.27;;;1.17;;
67768;SDS011;54569;52.018;5.584;2023-02-28T09:54:03;1.52;;;1.42;;
67768;SDS011;54569;52.018;5.584;2023-02-28T09:56:36;1.20;;;1.20;;
67768;SDS011;54569;52.018;5.584;2023-02-28T09:59:10;1.55;;;1.45;;
67768;SDS011;54569;52.018;5.584;2023-02-28T10:04:50;1.42;;;1.30;;
67768;SDS011;54569;52.018;5.584;2023-02-28T10:10:24;1.70;;;1.60;;
67768;SDS011;54569;52.018;5.584;2023-02-28T10:12:59;1.40;;;1.30;;
67768;SDS011;54569;52.018;5.584;2023-02-28T10:15:27;2.58;;;1.50;;
67768;SDS011;54569;52.018;5.584;2023-02-28T10:17:58;1.50;;;1.40;;
67768;SDS011;54569;52.018;5.584;2023-02-28T10:20:38;1.50;;;1.40;;
67768;SDS011;54569;52.018;5.584;2023-02-28T10:23:23;1.23;;;1.13;;
67768;SDS011;54569;52.018;5.584;2023-02-28T10:26:01;1.50;;;1.40;;
67768;SDS011;54569;52.018;5.584;2023-02-28T10:28:35;2.15;;;1.45;;
67768;SDS011;54569;52.018;5.584;2023-02-28T10:31:01;1.40;;;1.30;;
67768;SDS011;54569;52.018;5.584;2023-02-28T10:33:28;1.67;;;1.58;;
67768;SDS011;54569;52.018;5.584;2023-02-28T10:35:54;1.55;;;1.27;;
67768;SDS011;54569;52.018;5.584;2023-02-28T10:38:22;1.48;;;1.38;;
67768;SDS011;54569;52.018;5.584;2023-02-28T10:41:07;1.50;;;1.40;;
67768;SDS011;54569;52.018;5.584;2023-02-28T10:43:52;1.60;;;1.50;;
67768;SDS011;54569;52.018;5.584;2023-02-28T10:46:33;1.73;;;1.50;;
67768;SDS011;54569;52.018;5.584;2023-02-28T10:49:03;1.38;;;1.27;;
67768;SDS011;54569;52.018;5.584;2023-02-28T10:51:38;1.33;;;1.20;;
67768;SDS011;54569;52.018;5.584;2023-02-28T10:54:05;2.35;;;1.60;;
67768;SDS011;54569;52.018;5.584;2023-02-28T10:56:44;2.03;;;1.65;;
67768;SDS011;54569;52.018;5.584;2023-02-28T10:59:27;1.30;;;1.30;;
67768;SDS011;54569;52.018;5.584;2023-02-28T11:01:56;1.60;;;1.50;;
67768;SDS011;54569;52.018;5.584;2023-02-28T11:06:47;3.00;;;1.30;;
67768;SDS011;54569;52.018;5.584;2023-02-28T11:09:25;1.55;;;1.45;;
67768;SDS011;54569;52.018;5.584;2023-02-28T11:11:57;1.38;;;1.27;;
67768;SDS011;54569;52.018;5.584;2023-02-28T11:14:30;1.55;;;1.45;;
67768;SDS011;54569;52.018;5.584;2023-02-28T11:17:14;1.42;;;1.30;;
67768;SDS011;54569;52.018;5.584;2023-02-28T11:19:45;1.63;;;1.20;;
67768;SDS011;54569;52.018;5.584;2023-02-28T11:22:18;1.50;;;1.40;;
67768;SDS011;54569;52.018;5.584;2023-02-28T11:24:47;1.40;;;1.30;;
67768;SDS011;54569;52.018;5.584;2023-02-28T11:28:25;1.75;;;1.35;;
67768;SDS011;54569;52.018;5.584;2023-02-28T11:30:32;1.50;;;1.33;;
67768;SDS011;54569;52.018;5.584;2023-02-28T11:33:48;1.50;;;1.40;;
67768;SDS011;54569;52.018;5.584;2023-02-28T11:35:57;1.52;;;1.42;;
67768;SDS011;54569;52.018;5.584;2023-02-28T11:38:26;1.15;;;1.08;;
67768;SDS011;54569;52.018;5.584;2023-02-28T11:43:26;1.60;;;1.40;;
67768;SDS011;54569;52.018;5.584;2023-02-28T11:46:16;1.42;;;1.25;;
67768;SDS011;54569;52.018;5.584;2023-02-28T11:51:47;1.40;;;1.30;;
67768;SDS011;54569;52.018;5.584;2023-02-28T11:57:20;1.77;;;1.25;;
67768;SDS011;54569;52.018;5.584;2023-02-28T12:05:34;1.58;;;1.30;;
67768;SDS011;54569;52.018;5.584;2023-02-28T12:11:10;8.07;;;2.17;;
67768;SDS011;54569;52.018;5.584;2023-02-28T12:14:05;1.63;;;1.52;;
67768;SDS011;54569;52.018;5.584;2023-02-28T12:19:25;2.10;;;1.50;;
67768;SDS011;54569;52.018;5.584;2023-02-28T12:27:29;2.63;;;1.70;;
67768;SDS011;54569;52.018;5.584;2023-02-28T12:30:08;1.75;;;1.60;;
67768;SDS011;54569;52.018;5.584;2023-02-28T12:32:45;3.53;;;1.38;;
67768;SDS011;54569;52.018;5.584;2023-02-28T12:35:16;2.88;;;1.52;;
67768;SDS011;54569;52.018;5.584;2023-02-28T12:37:57;3.20;;;1.27;;
67768;SDS011;54569;52.018;5.584;2023-02-28T12:40:44;1.77;;;1.50;;
67768;SDS011;54569;52.018;5.584;2023-02-28T12:43:15;1.55;;;1.45;;
67768;SDS011;54569;52.018;5.584;2023-02-28T12:48:25;1.60;;;1.50;;
67768;SDS011;54569;52.018;5.584;2023-02-28T12:51:13;1.58;;;1.48;;
67768;SDS011;54569;52.018;5.584;2023-02-28T13:02:18;1.92;;;1.75;;
67768;SDS011;54569;52.018;5.584;2023-02-28T13:07:58;1.92;;;1.73;;
67768;SDS011;54569;52.018;5.584;2023-02-28T13:10:47;1.85;;;1.75;;
67768;SDS011;54569;52.018;5.584;2023-02-28T13:13:22;2.05;;;1.80;;
67768;SDS011;54569;52.018;5.584;2023-02-28T13:15:57;1.80;;;1.70;;
67768;SDS011;54569;52.018;5.584;2023-02-28T13:21:02;1.85;;;1.58;;
67768;SDS011;54569;52.018;5.584;2023-02-28T13:32:18;1.40;;;1.40;;
67768;SDS011;54569;52.018;5.584;2023-02-28T13:34:37;2.70;;;1.83;;
67768;SDS011;54569;52.018;5.584;2023-02-28T13:39:48;2.47;;;1.92;;
67768;SDS011;54569;52.018;5.584;2023-02-28T13:50:14;1.75;;;1.65;;
67768;SDS011;54569;52.018;5.584;2023-02-28T13:52:48;1.60;;;1.50;;
67768;SDS011;54569;52.018;5.584;2023-02-28T14:01:02;3.45;;;1.70;;
67768;SDS011;54569;52.018;5.584;2023-02-28T14:03:39;2.25;;;1.55;;
67768;SDS011;54569;52.018;5.584;2023-02-28T14:06:29;2.25;;;1.83;;
67768;SDS011;54569;52.018;5.584;2023-02-28T14:09:01;2.25;;;1.70;;
67768;SDS011;54569;52.018;5.584;2023-02-28T14:11:33;1.58;;;1.48;;
67768;SDS011;54569;52.018;5.584;2023-02-28T14:14:00;2.60;;;1.75;;
67768;SDS011;54569;52.018;5.584;2023-02-28T14:16:34;2.00;;;1.90;;
67768;SDS011;54569;52.018;5.584;2023-02-28T14:19:19;2.97;;;2.40;;
67768;SDS011;54569;52.018;5.584;2023-02-28T14:28:08;2.72;;;1.60;;
67768;SDS011;54569;52.018;5.584;2023-02-28T14:36:32;1.58;;;1.50;;
67768;SDS011;54569;52.018;5.584;2023-02-28T14:39:07;2.08;;;1.40;;
67768;SDS011;54569;52.018;5.584;2023-02-28T14:41:41;1.90;;;1.50;;
67768;SDS011;54569;52.018;5.584;2023-02-28T14:44:19;2.97;;;1.92;;
67768;SDS011;54569;52.018;5.584;2023-02-28T14:46:47;1.77;;;1.67;;
67768;SDS011;54569;52.018;5.584;2023-02-28T14:49:19;1.70;;;1.60;;
67768;SDS011;54569;52.018;5.584;2023-02-28T14:54:39;3.03;;;1.65;;
67768;SDS011;54569;52.018;5.584;2023-02-28T14:57:05;1.77;;;1.67;;
67768;SDS011;54569;52.018;5.584;2023-02-28T14:59:33;1.70;;;1.60;;
67768;SDS011;54569;52.018;5.584;2023-02-28T15:04:53;2.03;;;1.85;;
67768;SDS011;54569;52.018;5.584;2023-02-28T15:07:23;1.70;;;1.50;;
67768;SDS011;54569;52.018;5.584;2023-02-28T15:10:06;1.60;;;1.50;;
67768;SDS011;54569;52.018;5.584;2023-02-28T15:12:34;2.40;;;2.30;;
67768;SDS011;54569;52.018;5.584;2023-02-28T15:15:00;1.60;;;1.50;;
67768;SDS011;54569;52.018;5.584;2023-02-28T15:17:26;1.77;;;1.67;;
67768;SDS011;54569;52.018;5.584;2023-02-28T15:19:52;1.73;;;1.63;;
67768;SDS011;54569;52.018;5.584;2023-02-28T15:22:22;2.28;;;1.50;;
67768;SDS011;54569;52.018;5.584;2023-02-28T15:24:54;1.80;;;1.70;;
67768;SDS011;54569;52.018;5.584;2023-02-28T15:27:22;1.75;;;1.33;;
67768;SDS011;54569;52.018;5.584;2023-02-28T15:29:53;1.60;;;1.50;;
67768;SDS011;54569;52.018;5.584;2023-02-28T15:32:35;1.70;;;1.60;;
67768;SDS011;54569;52.018;5.584;2023-02-28T15:40:43;1.67;;;1.58;;
67768;SDS011;54569;52.018;5.584;2023-02-28T15:43:28;3.42;;;1.80;;
67768;SDS011;54569;52.018;5.584;2023-02-28T15:45:58;3.60;;;1.83;;
67768;SDS011;54569;52.018;5.584;2023-02-28T15:51:09;1.95;;;1.60;;
67768;SDS011;54569;52.018;5.584;2023-02-28T15:53:48;1.92;;;1.83;;
67768;SDS011;54569;52.018;5.584;2023-02-28T15:58:57;1.67;;;1.58;;
67768;SDS011;54569;52.018;5.584;2023-02-28T16:01:36;3.53;;;1.80;;
67768;SDS011;54569;52.018;5.584;2023-02-28T16:04:04;1.88;;;1.77;;
67768;SDS011;54569;52.018;5.584;2023-02-28T16:06:44;1.85;;;1.60;;
67768;SDS011;54569;52.018;5.584;2023-02-28T16:09:14;4.35;;;1.90;;
67768;SDS011;54569;52.018;5.584;2023-02-28T16:11:48;2.22;;;1.65;;
67768;SDS011;54569;52.018;5.584;2023-02-28T16:14:16;1.98;;;1.88;;
67768;SDS011;54569;52.018;5.584;2023-02-28T16:16:53;3.15;;;1.75;;
67768;SDS011;54569;52.018;5.584;2023-02-28T16:19:20;2.17;;;1.92;;
67768;SDS011;54569;52.018;5.584;2023-02-28T16:21:46;1.70;;;1.60;;
67768;SDS011;54569;52.018;5.584;2023-02-28T16:24:15;1.98;;;1.77;;
67768;SDS011;54569;52.018;5.584;2023-02-28T16:26:41;1.70;;;1.58;;
67768;SDS011;54569;52.018;5.584;2023-02-28T16:29:13;1.70;;;1.60;;
67768;SDS011;54569;52.018;5.584;2023-02-28T16:31:47;2.85;;;1.95;;
67768;SDS011;54569;52.018;5.584;2023-02-28T16:34:13;3.35;;;2.40;;
67768;SDS011;54569;52.018;5.584;2023-02-28T16:36:38;2.90;;;2.15;;
67768;SDS011;54569;52.018;5.584;2023-02-28T16:39:07;2.25;;;1.90;;
67768;SDS011;54569;52.018;5.584;2023-02-28T16:41:33;2.60;;;2.03;;
67768;SDS011;54569;52.018;5.584;2023-02-28T16:43:59;3.10;;;2.20;;
67768;SDS011;54569;52.018;5.584;2023-02-28T16:46:31;4.85;;;2.25;;
67768;SDS011;54569;52.018;5.584;2023-02-28T16:48:59;2.33;;;2.08;;
67768;SDS011;54569;52.018;5.584;2023-02-28T16:51:25;2.25;;;1.70;;
67768;SDS011;54569;52.018;5.584;2023-02-28T16:53:51;2.20;;;1.88;;
67768;SDS011;54569;52.018;5.584;2023-02-28T16:56:17;1.60;;;1.50;;
67768;SDS011;54569;52.018;5.584;2023-02-28T16:58:49;1.50;;;1.40;;
67768;SDS011;54569;52.018;5.584;2023-02-28T17:01:17;2.25;;;1.70;;
67768;SDS011;54569;52.018;5.584;2023-02-28T17:03:46;4.03;;;1.85;;
67768;SDS011;54569;52.018;5.584;2023-02-28T17:06:17;2.60;;;1.65;;
67768;SDS011;54569;52.018;5.584;2023-02-28T17:08:47;1.70;;;1.60;;
67768;SDS011;54569;52.018;5.584;2023-02-28T17:11:13;1.70;;;1.60;;
67768;SDS011;54569;52.018;5.584;2023-02-28T17:13:39;2.03;;;1.92;;
67768;SDS011;54569;52.018;5.584;2023-02-28T17:16:05;4.00;;;1.88;;
67768;SDS011;54569;52.018;5.584;2023-02-28T17:18:30;2.42;;;2.13;;
67768;SDS011;54569;52.018;5.584;2023-02-28T17:20:59;1.88;;;1.70;;
67768;SDS011;54569;52.018;5.584;2023-02-28T17:23:25;2.53;;;1.67;;
67768;SDS011;54569;52.018;5.584;2023-02-28T17:25:51;2.33;;;2.00;;
67768;SDS011;54569;52.018;5.584;2023-02-28T17:28:20;1.90;;;1.80;;